createdAt,value
2022-09-12T00:00:24.682Z,101923.47
2022-09-12T00:03:26.014Z,101919.28
2022-09-12T00:06:27.310Z,101922.16
2022-09-12T00:09:28.821Z,101912.78
2022-09-12T00:12:30.153Z,101917.91
2022-09-12T00:15:31.486Z,101917.91
2022-09-12T00:18:33.715Z,101912.81
2022-09-12T00:21:36.861Z,101912.13
2022-09-12T00:24:38.246Z,101919.28
2022-09-12T00:27:39.617Z,101903.97
2022-09-12T00:30:46.606Z,101901.78
2022-09-12T00:33:47.983Z,101902.00
2022-09-12T00:36:49.307Z,101901.91
2022-09-12T00:39:50.722Z,101896.84
2022-09-12T00:42:52.083Z,101896.84
2022-09-12T00:45:53.628Z,101898.47
2022-09-12T00:49:11.416Z,101905.41
2022-09-12T00:52:16.178Z,101903.59
2022-09-12T00:55:29.947Z,101902.16
2022-09-12T00:58:42.304Z,101896.19
2022-09-12T01:01:46.518Z,101897.78
2022-09-12T01:04:48.340Z,101896.06
2022-09-12T01:07:50.683Z,101892.88
2022-09-12T01:10:52.326Z,101891.84
2022-09-12T01:13:54.579Z,101893.00
2022-09-12T01:16:56.084Z,101883.47
2022-09-12T01:20:16.002Z,101887.28
2022-09-12T01:23:59.301Z,101878.53
2022-09-12T01:27:25.971Z,101878.81
2022-09-12T01:30:55.972Z,101878.75
2022-09-12T01:34:15.487Z,101871.06
2022-09-12T01:37:52.884Z,101872.38
2022-09-12T01:41:14.060Z,101871.63
2022-09-12T01:44:41.425Z,101862.25
2022-09-12T01:48:07.485Z,101868.41
2022-09-12T01:51:17.729Z,101861.63
2022-09-12T01:54:41.660Z,101857.63
2022-09-12T01:58:02.911Z,101857.22
2022-09-12T02:01:15.588Z,101853.16
2022-09-12T02:04:25.453Z,101852.63
2022-09-12T02:07:39.432Z,101844.22
2022-09-12T02:10:55.833Z,101846.81
2022-09-12T02:14:15.465Z,101844.09
2022-09-12T02:17:20.698Z,101837.78
2022-09-12T02:20:49.501Z,101838.78
2022-09-12T02:23:58.598Z,101833.97
2022-09-12T02:27:05.709Z,101838.06
2022-09-12T02:30:08.825Z,101837.19
2022-09-12T02:33:23.563Z,101844.81
2022-09-12T02:36:27.889Z,101846.25
2022-09-12T02:39:29.334Z,101843.44
2022-09-12T02:42:30.737Z,101842.34
2022-09-12T02:45:33.984Z,101837.41
2022-09-12T02:48:37.798Z,101846.75
2022-09-12T02:51:40.090Z,101852.94
2022-09-12T02:54:42.939Z,101851.09
2022-09-12T02:57:44.530Z,101847.91
2022-09-12T03:00:55.238Z,101850.38
2022-09-12T03:07:44.795Z,101843.22
2022-09-12T03:10:48.884Z,101844.03
2022-09-12T03:14:03.255Z,101840.00
2022-09-12T03:17:24.196Z,101837.88
2022-09-12T03:20:46.503Z,101835.13
2022-09-12T03:24:17.703Z,101831.72
2022-09-12T03:27:43.156Z,101836.78
2022-09-12T03:30:47.399Z,101837.50
2022-09-12T03:33:48.791Z,101835.72
2022-09-12T03:36:50.525Z,101832.50
2022-09-12T03:39:52.021Z,101831.81
2022-09-12T03:42:53.428Z,101832.09
2022-09-12T03:45:54.821Z,101836.53
2022-09-12T03:48:56.324Z,101834.19
2022-09-12T03:51:57.677Z,101833.31
2022-09-12T03:54:59.004Z,101835.81
2022-09-12T03:58:00.385Z,101832.31
2022-09-12T04:01:10.574Z,101826.53
2022-09-12T04:04:11.928Z,101828.97
2022-09-12T04:07:13.269Z,101826.50
2022-09-12T04:10:16.174Z,101831.72
2022-09-12T04:13:17.721Z,101823.28
2022-09-12T04:16:19.317Z,101828.31
2022-09-12T04:19:20.694Z,101822.34
2022-09-12T04:22:22.044Z,101815.59
2022-09-12T04:25:23.359Z,101820.78
2022-09-12T04:28:25.472Z,101818.13
2022-09-12T04:31:27.252Z,101828.38
2022-09-12T04:34:30.966Z,101823.44
2022-09-12T04:37:32.340Z,101825.59
2022-09-12T04:40:33.731Z,101825.75
2022-09-12T04:43:35.090Z,101824.06
2022-09-12T04:46:39.427Z,101825.00
2022-09-12T04:49:40.744Z,101830.00
2022-09-12T04:52:42.158Z,101817.22
2022-09-12T04:55:43.487Z,101827.47
2022-09-12T04:58:45.255Z,101829.25
2022-09-12T05:01:46.604Z,101834.47
2022-09-12T05:04:47.987Z,101827.34
2022-09-12T05:07:49.322Z,101824.44
2022-09-12T05:10:50.659Z,101833.47
2022-09-12T05:13:52.147Z,101819.59
2022-09-12T05:16:53.538Z,101818.13
2022-09-12T05:19:54.999Z,101826.63
2022-09-12T05:22:56.325Z,101823.94
2022-09-12T05:25:59.411Z,101817.00
2022-09-12T05:29:01.151Z,101814.25
2022-09-12T05:32:03.112Z,101818.38
2022-09-12T05:35:04.774Z,101816.50
2022-09-12T05:38:06.968Z,101827.22
2022-09-12T05:41:16.965Z,101828.56
2022-09-12T05:44:19.644Z,101825.44
2022-09-12T05:47:21.006Z,101829.28
2022-09-12T05:50:22.348Z,101830.69
2022-09-12T05:53:23.665Z,101821.03
2022-09-12T05:56:27.427Z,101822.53
2022-09-12T05:59:28.736Z,101833.31
2022-09-12T06:02:30.079Z,101826.19
2022-09-12T06:05:31.441Z,101828.22
2022-09-12T06:08:33.824Z,101822.69
2022-09-12T06:11:36.900Z,101809.00
2022-09-12T06:14:38.232Z,101810.19
2022-09-12T06:17:39.564Z,101812.97
2022-09-12T06:20:40.890Z,101807.47
2022-09-12T06:23:42.298Z,101807.16
2022-09-12T06:26:43.778Z,101797.13
2022-09-12T06:29:45.792Z,101802.78
2022-09-12T06:32:47.121Z,101800.75
2022-09-12T06:35:48.477Z,101804.66
2022-09-12T06:39:14.256Z,101798.25
2022-09-12T06:42:15.693Z,101790.19
2022-09-12T06:45:30.380Z,101791.13
2022-09-12T06:48:31.944Z,101789.00
2022-09-12T06:51:34.164Z,101789.91
2022-09-12T06:54:35.488Z,101790.38
2022-09-12T06:57:36.838Z,101782.13
2022-09-12T07:00:38.180Z,101785.44
2022-09-12T07:03:40.480Z,101782.28
2022-09-12T07:06:42.512Z,101782.75
2022-09-12T07:09:43.845Z,101783.38
2022-09-12T07:12:45.177Z,101782.81
2022-09-12T07:15:46.496Z,101786.38
2022-09-12T07:19:07.697Z,101781.00
2022-09-12T07:22:09.034Z,101786.13
2022-09-12T07:25:10.362Z,101779.16
2022-09-12T07:28:11.714Z,101783.03
2022-09-12T07:31:15.590Z,101771.13
2022-09-12T07:34:16.993Z,101762.91
2022-09-12T07:37:18.390Z,101768.84
2022-09-12T07:40:19.743Z,101777.78
2022-09-12T07:43:21.115Z,101774.75
2022-09-12T07:46:23.298Z,101770.84
2022-09-12T07:49:24.622Z,101772.47
2022-09-12T07:52:25.970Z,101772.66
2022-09-12T07:55:27.294Z,101773.50
2022-09-12T07:58:29.594Z,101769.63
2022-09-12T08:01:31.119Z,101777.59
2022-09-12T08:04:32.487Z,101788.94
2022-09-12T08:07:33.936Z,101781.25
2022-09-12T08:10:35.983Z,101774.56
2022-09-12T08:13:38.422Z,101780.69
2022-09-12T08:16:39.755Z,101777.44
2022-09-12T08:19:41.128Z,101774.91
2022-09-12T08:22:42.459Z,101774.06
2022-09-12T08:25:43.788Z,101762.53
2022-09-12T08:28:46.119Z,101762.41
2022-09-12T08:31:47.423Z,101765.97
2022-09-12T08:34:48.771Z,101766.06
2022-09-12T08:37:50.104Z,101763.84
2022-09-12T08:41:00.266Z,101759.94
2022-09-12T08:44:16.459Z,101756.63
2022-09-12T08:47:27.309Z,101760.69
2022-09-12T08:50:28.647Z,101760.72
2022-09-12T08:53:33.240Z,101764.28
2022-09-12T08:56:37.480Z,101760.00
2022-09-12T08:59:41.828Z,101758.25
2022-09-12T09:02:49.128Z,101759.31
2022-09-12T09:06:00.429Z,101753.97
2022-09-12T09:09:09.173Z,101755.25
2022-09-12T09:12:40.515Z,101751.53
2022-09-12T09:16:04.576Z,101746.97
2022-09-12T09:19:14.064Z,101754.25
2022-09-12T09:22:36.249Z,101742.22
2022-09-12T09:25:45.673Z,101731.59
2022-09-12T09:28:52.651Z,101735.63
2022-09-12T09:35:37.380Z,101730.97
2022-09-12T09:38:49.104Z,101731.34
2022-09-12T09:42:12.907Z,101735.41
2022-09-12T09:45:16.987Z,101733.13
2022-09-12T09:48:23.753Z,101729.25
2022-09-12T09:51:32.983Z,101733.94
2022-09-12T09:54:40.675Z,101729.72
2022-09-12T09:57:44.187Z,101725.84
2022-09-12T10:00:46.203Z,101728.53
2022-09-12T10:03:56.512Z,101733.53
2022-09-12T10:07:17.459Z,101726.84
2022-09-12T10:10:20.095Z,101728.88
2022-09-12T10:13:34.479Z,101729.44
2022-09-12T10:16:49.928Z,101730.72
2022-09-12T10:20:10.480Z,101730.31
2022-09-12T10:23:18.592Z,101727.19
2022-09-12T10:26:20.526Z,101723.94
2022-09-12T10:29:30.712Z,101721.31
2022-09-12T10:32:41.270Z,101714.84
2022-09-12T10:35:48.238Z,101717.38
2022-09-12T10:38:53.796Z,101715.84
2022-09-12T10:41:55.146Z,101715.63
2022-09-12T10:44:56.500Z,101712.50
2022-09-12T10:48:07.296Z,101703.13
2022-09-12T10:51:27.911Z,101696.69
2022-09-12T10:54:30.190Z,101694.19
2022-09-12T10:58:15.398Z,101693.69
2022-09-12T11:01:29.164Z,101690.34
2022-09-12T11:04:57.813Z,101683.31
2022-09-12T11:08:28.102Z,101673.63
2022-09-12T11:11:42.758Z,101685.28
2022-09-12T11:15:08.469Z,101674.44
2022-09-12T11:18:32.847Z,101676.09
2022-09-12T11:21:53.578Z,101679.84
2022-09-12T11:25:25.364Z,101678.31
2022-09-12T11:28:35.955Z,101674.16
2022-09-12T11:31:52.696Z,101671.13
2022-09-12T11:35:17.884Z,101662.97
2022-09-12T11:38:22.212Z,101668.22
2022-09-12T11:41:30.196Z,101662.69
2022-09-12T11:44:40.372Z,101662.59
2022-09-12T11:47:46.552Z,101661.72
2022-09-12T11:50:47.892Z,101657.47
2022-09-12T11:54:01.964Z,101658.88
2022-09-12T11:57:23.280Z,101656.47
2022-09-12T12:00:32.011Z,101655.84
2022-09-12T12:03:40.656Z,101657.56
2022-09-12T12:07:10.285Z,101659.53
2022-09-12T12:10:32.748Z,101653.72
2022-09-12T12:13:48.048Z,101654.31
2022-09-12T12:16:49.988Z,101646.81
2022-09-12T12:20:08.324Z,101651.41
2022-09-12T12:23:27.053Z,101647.28
2022-09-12T12:26:40.713Z,101640.03
2022-09-12T12:29:45.617Z,101637.56
2022-09-12T12:32:47.025Z,101637.00
2022-09-12T12:36:04.957Z,101627.56
2022-09-12T12:39:48.147Z,101624.22
2022-09-12T12:42:49.629Z,101624.47
2022-09-12T12:46:00.788Z,101626.88
2022-09-12T12:49:21.430Z,101622.66
2022-09-12T12:52:24.102Z,101618.91
2022-09-12T12:55:57.671Z,101622.22
2022-09-12T12:59:02.385Z,101612.50
2022-09-12T13:02:04.472Z,101614.47
2022-09-12T13:05:18.078Z,101610.44
2022-09-12T13:08:19.355Z,101604.09
2022-09-12T13:11:31.882Z,101593.81
2022-09-12T13:14:34.903Z,101587.50
2022-09-12T13:17:41.231Z,101580.19
2022-09-12T13:20:49.510Z,101580.31
2022-09-12T13:24:15.676Z,101575.34
2022-09-12T13:27:25.147Z,101573.56
2022-09-12T13:30:28.385Z,101565.94
2022-09-12T13:33:49.778Z,101564.16
2022-09-12T13:37:09.209Z,101544.34
2022-09-12T13:40:40.563Z,101544.06
2022-09-12T13:43:46.300Z,101552.50
2022-09-12T13:46:48.779Z,101546.84
2022-09-12T13:49:50.302Z,101545.97
2022-09-12T13:52:55.825Z,101541.25
2022-09-12T13:55:59.128Z,101536.56
2022-09-12T13:59:02.292Z,101532.81
2022-09-12T14:02:19.115Z,101531.25
2022-09-12T14:05:24.969Z,101529.00
2022-09-12T14:08:26.388Z,101528.69
2022-09-12T14:11:30.196Z,101531.41
2022-09-12T14:17:36.135Z,101520.31
2022-09-12T14:20:38.977Z,101518.09
2022-09-12T14:23:44.742Z,101514.41
2022-09-12T14:26:46.591Z,101517.31
2022-09-12T14:29:48.310Z,101503.06
2022-09-12T14:33:11.456Z,101501.41
2022-09-12T14:36:24.189Z,101503.38
2022-09-12T14:39:42.460Z,101496.09
2022-09-12T14:42:44.250Z,101484.81
2022-09-12T14:45:54.214Z,101486.78
2022-09-12T14:49:00.655Z,101488.72
2022-09-12T14:52:06.402Z,101487.34
2022-09-12T14:55:44.718Z,101482.69
2022-09-12T14:58:46.104Z,101486.16
2022-09-12T15:01:47.521Z,101489.09
2022-09-12T15:04:54.306Z,101484.50
2022-09-12T15:08:02.048Z,101478.84
2022-09-12T15:11:06.299Z,101479.81
2022-09-12T15:14:15.031Z,101480.50
2022-09-12T15:17:16.374Z,101475.53
2022-09-12T15:20:17.731Z,101475.38
2022-09-12T15:23:45.040Z,101464.69
2022-09-12T15:26:46.403Z,101466.09
2022-09-12T15:29:47.736Z,101458.19
2022-09-12T15:32:49.044Z,101461.81
2022-09-12T15:35:51.347Z,101454.06
2022-09-12T15:38:52.860Z,101445.63
2022-09-12T15:41:54.196Z,101443.28
2022-09-12T15:44:58.391Z,101438.31
2022-09-12T15:48:02.232Z,101437.91
2022-09-12T15:51:03.692Z,101435.69
2022-09-12T15:54:05.063Z,101430.00
2022-09-12T15:57:06.852Z,101433.50
2022-09-12T16:00:08.805Z,101432.66
2022-09-12T16:03:25.580Z,101429.72
2022-09-12T16:06:26.916Z,101437.84
2022-09-12T16:09:28.340Z,101431.06
2022-09-12T16:12:29.689Z,101426.88
2022-09-12T16:15:31.101Z,101430.31
2022-09-12T16:18:32.429Z,101414.81
2022-09-12T16:21:33.797Z,101419.22
2022-09-12T16:24:35.189Z,101414.59
2022-09-12T16:27:36.925Z,101414.31
2022-09-12T16:30:38.373Z,101406.94
2022-09-12T16:33:40.286Z,101405.91
2022-09-12T16:36:41.617Z,101403.09
2022-09-12T16:39:43.043Z,101402.28
2022-09-12T16:42:45.038Z,101398.13
2022-09-12T16:45:46.401Z,101391.88
2022-09-12T16:48:52.413Z,101394.78
2022-09-12T16:51:54.102Z,101393.78
2022-09-12T16:54:55.483Z,101380.44
2022-09-12T16:57:56.850Z,101380.94
2022-09-12T17:01:13.480Z,101369.81
2022-09-12T17:04:15.010Z,101368.13
2022-09-12T17:07:16.350Z,101362.03
2022-09-12T17:10:17.738Z,101361.34
2022-09-12T17:13:19.091Z,101350.66
2022-09-12T17:16:21.131Z,101348.19
2022-09-12T17:19:24.810Z,101344.97
2022-09-12T17:22:26.147Z,101344.03
2022-09-12T17:25:27.504Z,101332.94
2022-09-12T17:28:29.455Z,101328.94
2022-09-12T17:31:31.286Z,101333.25
2022-09-12T17:34:32.676Z,101331.59
2022-09-12T17:37:34.776Z,101330.19
2022-09-12T17:40:58.050Z,101336.88
2022-09-12T17:43:58.807Z,101334.66
2022-09-12T17:47:00.190Z,101329.09
2022-09-12T17:50:27.776Z,101329.31
2022-09-12T17:53:22.996Z,101328.53
2022-09-12T17:56:24.967Z,101321.06
2022-09-12T17:59:26.374Z,101322.75
2022-09-12T18:02:31.326Z,101328.94
2022-09-12T18:05:34.337Z,101328.13
2022-09-12T18:08:35.648Z,101323.97
2022-09-12T18:11:37.013Z,101321.72
2022-09-12T18:14:38.333Z,101327.31
2022-09-12T18:17:39.661Z,101317.34
2022-09-12T18:20:49.749Z,101314.63
2022-09-12T18:23:51.137Z,101306.31
2022-09-12T18:26:52.475Z,101313.66
2022-09-12T18:30:17.210Z,101307.72
2022-09-12T18:33:15.129Z,101308.81
2022-09-12T18:36:17.717Z,101301.06
2022-09-12T18:39:19.055Z,101298.00
2022-09-12T18:42:20.494Z,101295.13
2022-09-12T18:45:21.854Z,101289.56
2022-09-12T18:48:23.239Z,101288.25
2022-09-12T18:51:26.844Z,101281.03
2022-09-12T18:54:28.270Z,101281.63
2022-09-12T18:57:29.614Z,101284.34
2022-09-12T19:00:30.983Z,101288.41
2022-09-12T19:03:32.339Z,101285.19
2022-09-12T19:06:36.899Z,101292.44
2022-09-12T19:09:38.243Z,101282.69
2022-09-12T19:12:39.623Z,101277.22
2022-09-12T19:15:41.125Z,101269.50
2022-09-12T19:18:42.802Z,101261.59
2022-09-12T19:21:44.312Z,101258.94
2022-09-12T19:24:45.767Z,101247.19
2022-09-12T19:27:47.101Z,101240.41
2022-09-12T19:30:48.620Z,101247.44
2022-09-12T19:33:50.531Z,101243.03
2022-09-12T19:36:51.872Z,101244.94
2022-09-12T19:39:53.214Z,101251.44
2022-09-12T19:42:54.601Z,101249.16
2022-09-12T19:45:56.046Z,101246.19
2022-09-12T19:48:57.421Z,101244.03
2022-09-12T19:51:58.745Z,101251.16
2022-09-12T19:55:00.098Z,101239.97
2022-09-12T19:58:01.701Z,101245.19
2022-09-12T20:01:10.221Z,101238.53
2022-09-12T20:04:11.592Z,101236.28
2022-09-12T20:07:13.061Z,101232.72
2022-09-12T20:10:15.407Z,101233.56
2022-09-12T20:13:16.725Z,101229.50
2022-09-12T20:16:22.440Z,101228.78
2022-09-12T20:19:24.070Z,101218.19
2022-09-12T20:22:25.605Z,101219.34
2022-09-12T20:25:26.953Z,101215.22
2022-09-12T20:28:28.317Z,101205.81
2022-09-12T20:31:29.920Z,101200.50
2022-09-12T20:34:31.306Z,101196.31
2022-09-12T20:37:32.663Z,101193.84
2022-09-12T20:40:34.027Z,101185.38
2022-09-12T20:43:36.110Z,101187.59
2022-09-12T20:46:37.789Z,101182.03
2022-09-12T20:49:39.211Z,101180.25
2022-09-12T20:52:40.556Z,101182.97
2022-09-12T20:55:49.631Z,101169.31
2022-09-12T20:58:51.060Z,101153.47
2022-09-12T21:01:52.478Z,101154.75
2022-09-12T21:04:53.865Z,101140.72
2022-09-12T21:07:55.200Z,101146.13
2022-09-12T21:10:57.979Z,101126.84
2022-09-12T21:13:59.355Z,101134.56
2022-09-12T21:17:00.711Z,101120.47
2022-09-12T21:20:02.332Z,101107.44
2022-09-12T21:23:03.711Z,101108.72
2022-09-12T21:26:05.527Z,101109.75
2022-09-12T21:29:06.880Z,101120.94
2022-09-12T21:32:12.155Z,101126.66
2022-09-12T21:35:15.672Z,101126.41
2022-09-12T21:38:18.545Z,101122.75
2022-09-12T21:41:19.950Z,101117.66
2022-09-12T21:44:21.433Z,101116.38
2022-09-12T21:47:22.889Z,101112.81
2022-09-12T21:50:24.277Z,101106.78
2022-09-12T21:53:25.695Z,101101.78
2022-09-12T21:56:27.061Z,101102.03
2022-09-12T21:59:28.409Z,101100.47
2022-09-12T22:02:29.746Z,101102.44
2022-09-12T22:05:31.053Z,101099.22
2022-09-12T22:08:33.817Z,101088.91
2022-09-12T22:11:35.210Z,101089.25
2022-09-12T22:14:36.663Z,101083.00
2022-09-12T22:17:38.098Z,101084.03
2022-09-12T22:20:39.430Z,101076.22
2022-09-12T22:23:41.043Z,101075.28
2022-09-12T22:26:43.975Z,101080.16
2022-09-12T22:29:45.446Z,101065.69
2022-09-12T22:32:50.129Z,101053.72
2022-09-12T22:35:51.474Z,101058.09
2022-09-12T22:38:52.806Z,101052.88
2022-09-12T22:41:54.127Z,101044.97
2022-09-12T22:44:55.461Z,101038.69
2022-09-12T22:48:00.579Z,101033.25
2022-09-12T22:51:02.432Z,101028.78
2022-09-12T22:54:03.751Z,101034.69
2022-09-12T22:57:05.183Z,101030.09
2022-09-12T23:00:07.179Z,101026.44
2022-09-12T23:03:08.582Z,101023.31
2022-09-12T23:06:10.505Z,101020.34
2022-09-12T23:09:11.967Z,101027.53
2022-09-12T23:12:13.380Z,101027.66
2022-09-12T23:15:14.721Z,101015.78
2022-09-12T23:18:16.127Z,101017.56
2022-09-12T23:21:20.065Z,101016.63
2022-09-12T23:24:21.552Z,101018.06
2022-09-12T23:27:22.909Z,101017.84
2022-09-12T23:30:24.264Z,101013.22
2022-09-12T23:33:29.801Z,101015.63
2022-09-12T23:36:31.988Z,101015.28
2022-09-12T23:39:33.369Z,101016.09
2022-09-12T23:42:34.706Z,101009.59
2022-09-12T23:45:36.091Z,101010.44
2022-09-12T23:48:37.518Z,101015.41
2022-09-12T23:51:38.970Z,101006.66
2022-09-12T23:54:40.355Z,101002.03
2022-09-12T23:57:41.697Z,100994.13
